sensor_id;sensor_type;location;lat;lon;timestamp;P1;durP1;ratioP1;P2;durP2;ratioP2
27199;SDS011;14714;48.106;11.546;2023-04-01T00:01:26;2.08;;;0.68;;
27199;SDS011;14714;48.106;11.546;2023-04-01T00:03:53;1.45;;;0.60;;
27199;SDS011;14714;48.106;11.546;2023-04-01T00:06:20;1.15;;;0.50;;
27199;SDS011;14714;48.106;11.546;2023-04-01T00:08:48;1.50;;;0.50;;
27199;SDS011;14714;48.106;11.546;2023-04-01T00:11:15;0.47;;;0.40;;
27199;SDS011;14714;48.106;11.546;2023-04-01T00:13:42;2.35;;;0.50;;
27199;SDS011;14714;48.106;11.546;2023-04-01T00:16:09;2.15;;;0.50;;
27199;SDS011;14714;48.106;11.546;2023-04-01T00:18:47;2.03;;;0.68;;
27199;SDS011;14714;48.106;11.546;2023-04-01T00:21:15;1.95;;;0.90;;
27199;SDS011;14714;48.106;11.546;2023-04-01T00:23:42;1.90;;;0.70;;
27199;SDS011;14714;48.106;11.546;2023-04-01T00:26:09;2.50;;;0.70;;
27199;SDS011;14714;48.106;11.546;2023-04-01T00:28:38;1.73;;;0.68;;
27199;SDS011;14714;48.106;11.546;2023-04-01T00:31:05;2.70;;;0.55;;
27199;SDS011;14714;48.106;11.546;2023-04-01T00:33:34;1.95;;;0.60;;
27199;SDS011;14714;48.106;11.546;2023-04-01T00:36:15;2.90;;;0.68;;
27199;SDS011;14714;48.106;11.546;2023-04-01T00:38:44;1.98;;;0.70;;
27199;SDS011;14714;48.106;11.546;2023-04-01T00:41:12;5.53;;;0.70;;
27199;SDS011;14714;48.106;11.546;2023-04-01T00:43:45;2.42;;;0.88;;
27199;SDS011;14714;48.106;11.546;2023-04-01T00:46:15;3.15;;;0.60;;
27199;SDS011;14714;48.106;11.546;2023-04-01T00:48:44;2.00;;;0.70;;
27199;SDS011;14714;48.106;11.546;2023-04-01T00:51:16;3.30;;;0.88;;
27199;SDS011;14714;48.106;11.546;2023-04-01T00:53:47;2.03;;;0.77;;
27199;SDS011;14714;48.106;11.546;2023-04-01T00:56:17;5.65;;;0.90;;
27199;SDS011;14714;48.106;11.546;2023-04-01T00:58:49;5.18;;;1.13;;
27199;SDS011;14714;48.106;11.546;2023-04-01T01:01:21;2.83;;;0.90;;
27199;SDS011;14714;48.106;11.546;2023-04-01T01:03:50;2.20;;;0.70;;
27199;SDS011;14714;48.106;11.546;2023-04-01T01:11:37;2.45;;;0.70;;
27199;SDS011;14714;48.106;11.546;2023-04-01T01:14:11;3.63;;;1.02;;
27199;SDS011;14714;48.106;11.546;2023-04-01T01:16:43;2.38;;;0.82;;
27199;SDS011;14714;48.106;11.546;2023-04-01T01:21:45;2.45;;;1.00;;
27199;SDS011;14714;48.106;11.546;2023-04-01T01:27:18;2.38;;;0.95;;
27199;SDS011;14714;48.106;11.546;2023-04-01T01:35:16;3.85;;;0.70;;
27199;SDS011;14714;48.106;11.546;2023-04-01T01:37:47;3.35;;;0.90;;
27199;SDS011;14714;48.106;11.546;2023-04-01T01:40:20;1.23;;;0.80;;
27199;SDS011;14714;48.106;11.546;2023-04-01T01:42:48;2.83;;;0.85;;
27199;SDS011;14714;48.106;11.546;2023-04-01T01:45:18;1.77;;;1.10;;
27199;SDS011;14714;48.106;11.546;2023-04-01T01:47:47;2.30;;;0.98;;
27199;SDS011;14714;48.106;11.546;2023-04-01T01:50:16;2.65;;;0.75;;
27199;SDS011;14714;48.106;11.546;2023-04-01T01:52:44;3.03;;;0.90;;
27199;SDS011;14714;48.106;11.546;2023-04-01T01:55:24;4.65;;;0.68;;
27199;SDS011;14714;48.106;11.546;2023-04-01T01:58:41;1.80;;;0.70;;
27199;SDS011;14714;48.106;11.546;2023-04-01T02:01:05;2.10;;;0.60;;
27199;SDS011;14714;48.106;11.546;2023-04-01T02:03:35;3.92;;;0.90;;
27199;SDS011;14714;48.106;11.546;2023-04-01T02:06:04;2.20;;;0.85;;
27199;SDS011;14714;48.106;11.546;2023-04-01T02:08:35;3.15;;;0.80;;
27199;SDS011;14714;48.106;11.546;2023-04-01T02:11:09;3.28;;;0.80;;
27199;SDS011;14714;48.106;11.546;2023-04-01T02:13:55;2.17;;;0.68;;
27199;SDS011;14714;48.106;11.546;2023-04-01T02:16:31;1.95;;;0.70;;
27199;SDS011;14714;48.106;11.546;2023-04-01T02:19:20;0.77;;;0.40;;
27199;SDS011;14714;48.106;11.546;2023-04-01T02:21:53;1.67;;;1.05;;
27199;SDS011;14714;48.106;11.546;2023-04-01T02:24:26;1.42;;;0.60;;
27199;SDS011;14714;48.106;11.546;2023-04-01T02:26:56;1.35;;;0.50;;
27199;SDS011;14714;48.106;11.546;2023-04-01T02:29:24;2.03;;;0.70;;
27199;SDS011;14714;48.106;11.546;2023-04-01T02:31:52;2.63;;;0.60;;
27199;SDS011;14714;48.106;11.546;2023-04-01T02:34:21;1.75;;;0.70;;
27199;SDS011;14714;48.106;11.546;2023-04-01T02:36:50;1.83;;;0.60;;
27199;SDS011;14714;48.106;11.546;2023-04-01T02:39:18;0.65;;;0.50;;
27199;SDS011;14714;48.106;11.546;2023-04-01T02:41:45;0.90;;;0.60;;
27199;SDS011;14714;48.106;11.546;2023-04-01T02:44:13;0.85;;;0.40;;
27199;SDS011;14714;48.106;11.546;2023-04-01T02:46:41;0.75;;;0.40;;
27199;SDS011;14714;48.106;11.546;2023-04-01T02:49:08;0.52;;;0.50;;
27199;SDS011;14714;48.106;11.546;2023-04-01T02:51:35;0.85;;;0.50;;
27199;SDS011;14714;48.106;11.546;2023-04-01T02:54:02;0.65;;;0.40;;
27199;SDS011;14714;48.106;11.546;2023-04-01T02:56:29;1.77;;;0.60;;
27199;SDS011;14714;48.106;11.546;2023-04-01T02:58:55;1.33;;;0.60;;
27199;SDS011;14714;48.106;11.546;2023-04-01T03:01:22;0.52;;;0.50;;
27199;SDS011;14714;48.106;11.546;2023-04-01T03:03:49;0.75;;;0.30;;
27199;SDS011;14714;48.106;11.546;2023-04-01T03:06:16;2.85;;;0.40;;
27199;SDS011;14714;48.106;11.546;2023-04-01T03:08:43;0.30;;;0.30;;
27199;SDS011;14714;48.106;11.546;2023-04-01T03:11:10;0.40;;;0.30;;
27199;SDS011;14714;48.106;11.546;2023-04-01T03:13:38;0.38;;;0.38;;
27199;SDS011;14714;48.106;11.546;2023-04-01T03:16:05;0.30;;;0.30;;
27199;SDS011;14714;48.106;11.546;2023-04-01T03:18:32;1.17;;;0.28;;
27199;SDS011;14714;48.106;11.546;2023-04-01T03:23:58;0.22;;;0.20;;
27199;SDS011;14714;48.106;11.546;2023-04-01T03:26:25;0.70;;;0.30;;
27199;SDS011;14714;48.106;11.546;2023-04-01T03:28:53;0.98;;;0.30;;
27199;SDS011;14714;48.106;11.546;2023-04-01T03:31:20;0.30;;;0.30;;
27199;SDS011;14714;48.106;11.546;2023-04-01T03:33:49;0.77;;;0.40;;
27199;SDS011;14714;48.106;11.546;2023-04-01T03:36:16;0.80;;;0.50;;
27199;SDS011;14714;48.106;11.546;2023-04-01T03:38:43;0.80;;;0.40;;
27199;SDS011;14714;48.106;11.546;2023-04-01T03:41:11;0.75;;;0.40;;
27199;SDS011;14714;48.106;11.546;2023-04-01T03:43:39;1.15;;;0.30;;
27199;SDS011;14714;48.106;11.546;2023-04-01T03:46:06;0.52;;;0.30;;
27199;SDS011;14714;48.106;11.546;2023-04-01T03:48:34;0.75;;;0.40;;
27199;SDS011;14714;48.106;11.546;2023-04-01T03:51:01;1.33;;;0.40;;
27199;SDS011;14714;48.106;11.546;2023-04-01T03:53:27;0.95;;;0.40;;
27199;SDS011;14714;48.106;11.546;2023-04-01T03:55:54;0.30;;;0.30;;
27199;SDS011;14714;48.106;11.546;2023-04-01T03:58:21;1.45;;;0.47;;
27199;SDS011;14714;48.106;11.546;2023-04-01T04:00:48;1.38;;;0.68;;
27199;SDS011;14714;48.106;11.546;2023-04-01T04:03:15;0.55;;;0.32;;
27199;SDS011;14714;48.106;11.546;2023-04-01T04:05:46;1.05;;;0.40;;
27199;SDS011;14714;48.106;11.546;2023-04-01T04:08:16;1.27;;;0.60;;
27199;SDS011;14714;48.106;11.546;2023-04-01T04:10:43;1.30;;;0.40;;
27199;SDS011;14714;48.106;11.546;2023-04-01T04:13:10;1.80;;;0.40;;
27199;SDS011;14714;48.106;11.546;2023-04-01T04:15:37;0.60;;;0.43;;
27199;SDS011;14714;48.106;11.546;2023-04-01T04:18:04;0.70;;;0.50;;
27199;SDS011;14714;48.106;11.546;2023-04-01T04:20:31;0.43;;;0.40;;
27199;SDS011;14714;48.106;11.546;2023-04-01T04:22:59;0.30;;;0.30;;
27199;SDS011;14714;48.106;11.546;2023-04-01T04:25:26;2.72;;;0.52;;
27199;SDS011;14714;48.106;11.546;2023-04-01T04:27:53;0.88;;;0.43;;
27199;SDS011;14714;48.106;11.546;2023-04-01T04:30:20;2.15;;;0.50;;
27199;SDS011;14714;48.106;11.546;2023-04-01T04:32:46;0.65;;;0.47;;
27199;SDS011;14714;48.106;11.546;2023-04-01T04:35:13;0.82;;;0.30;;
27199;SDS011;14714;48.106;11.546;2023-04-01T04:37:40;0.50;;;0.43;;
27199;SDS011;14714;48.106;11.546;2023-04-01T04:40:07;0.82;;;0.50;;
27199;SDS011;14714;48.106;11.546;2023-04-01T04:42:34;1.13;;;0.68;;
27199;SDS011;14714;48.106;11.546;2023-04-01T04:45:01;0.55;;;0.45;;
27199;SDS011;14714;48.106;11.546;2023-04-01T04:47:27;2.25;;;1.27;;
27199;SDS011;14714;48.106;11.546;2023-04-01T04:49:54;1.48;;;0.57;;
27199;SDS011;14714;48.106;11.546;2023-04-01T04:52:21;1.27;;;0.38;;
27199;SDS011;14714;48.106;11.546;2023-04-01T04:54:48;0.85;;;0.40;;
27199;SDS011;14714;48.106;11.546;2023-04-01T04:57:14;3.42;;;0.63;;
27199;SDS011;14714;48.106;11.546;2023-04-01T04:59:41;0.90;;;0.35;;
27199;SDS011;14714;48.106;11.546;2023-04-01T05:02:08;2.28;;;0.50;;
27199;SDS011;14714;48.106;11.546;2023-04-01T05:04:35;0.95;;;0.43;;
27199;SDS011;14714;48.106;11.546;2023-04-01T05:07:02;2.22;;;0.80;;
27199;SDS011;14714;48.106;11.546;2023-04-01T05:09:29;1.08;;;0.55;;
27199;SDS011;14714;48.106;11.546;2023-04-01T05:11:57;1.38;;;0.60;;
27199;SDS011;14714;48.106;11.546;2023-04-01T05:14:24;2.03;;;0.68;;
27199;SDS011;14714;48.106;11.546;2023-04-01T05:16:51;1.80;;;0.73;;
27199;SDS011;14714;48.106;11.546;2023-04-01T05:19:18;0.43;;;0.43;;
27199;SDS011;14714;48.106;11.546;2023-04-01T05:21:44;1.40;;;0.70;;
27199;SDS011;14714;48.106;11.546;2023-04-01T05:24:11;1.00;;;0.50;;
27199;SDS011;14714;48.106;11.546;2023-04-01T05:26:38;2.88;;;0.60;;
27199;SDS011;14714;48.106;11.546;2023-04-01T05:29:04;2.60;;;0.90;;
27199;SDS011;14714;48.106;11.546;2023-04-01T05:31:31;1.25;;;0.60;;
27199;SDS011;14714;48.106;11.546;2023-04-01T05:33:58;2.05;;;0.70;;
27199;SDS011;14714;48.106;11.546;2023-04-01T05:36:25;1.50;;;0.68;;
27199;SDS011;14714;48.106;11.546;2023-04-01T05:38:54;1.48;;;0.57;;
27199;SDS011;14714;48.106;11.546;2023-04-01T05:41:21;2.33;;;0.75;;
27199;SDS011;14714;48.106;11.546;2023-04-01T05:43:48;0.95;;;0.50;;
27199;SDS011;14714;48.106;11.546;2023-04-01T05:46:15;1.02;;;0.60;;
27199;SDS011;14714;48.106;11.546;2023-04-01T05:48:42;1.65;;;0.57;;
27199;SDS011;14714;48.106;11.546;2023-04-01T05:51:15;2.67;;;1.00;;
27199;SDS011;14714;48.106;11.546;2023-04-01T05:53:42;4.47;;;0.70;;
27199;SDS011;14714;48.106;11.546;2023-04-01T05:56:09;1.98;;;0.80;;
27199;SDS011;14714;48.106;11.546;2023-04-01T05:58:36;2.53;;;0.75;;
27199;SDS011;14714;48.106;11.546;2023-04-01T06:01:04;1.92;;;0.63;;
27199;SDS011;14714;48.106;11.546;2023-04-01T06:03:39;1.08;;;0.60;;
27199;SDS011;14714;48.106;11.546;2023-04-01T06:06:11;1.83;;;0.65;;
27199;SDS011;14714;48.106;11.546;2023-04-01T06:08:41;1.65;;;0.60;;
27199;SDS011;14714;48.106;11.546;2023-04-01T06:11:27;1.88;;;0.70;;
27199;SDS011;14714;48.106;11.546;2023-04-01T06:14:18;1.20;;;0.50;;
27199;SDS011;14714;48.106;11.546;2023-04-01T06:19:45;2.80;;;0.82;;
27199;SDS011;14714;48.106;11.546;2023-04-01T06:25:34;4.15;;;0.75;;
27199;SDS011;14714;48.106;11.546;2023-04-01T06:29:06;1.63;;;0.50;;
27199;SDS011;14714;48.106;11.546;2023-04-01T06:42:41;3.13;;;0.97;;
27199;SDS011;14714;48.106;11.546;2023-04-01T06:48:34;1.75;;;0.60;;
27199;SDS011;14714;48.106;11.546;2023-04-01T06:54:09;4.15;;;0.70;;
27199;SDS011;14714;48.106;11.546;2023-04-01T06:56:51;1.55;;;0.70;;
27199;SDS011;14714;48.106;11.546;2023-04-01T06:59:28;2.38;;;0.90;;
27199;SDS011;14714;48.106;11.546;2023-04-01T07:01:59;2.05;;;0.60;;
27199;SDS011;14714;48.106;11.546;2023-04-01T07:04:37;1.65;;;0.70;;
27199;SDS011;14714;48.106;11.546;2023-04-01T07:07:19;1.75;;;0.70;;
27199;SDS011;14714;48.106;11.546;2023-04-01T07:09:49;1.65;;;0.70;;
27199;SDS011;14714;48.106;11.546;2023-04-01T07:12:22;2.00;;;0.90;;
27199;SDS011;14714;48.106;11.546;2023-04-01T07:14:54;2.60;;;0.98;;
27199;SDS011;14714;48.106;11.546;2023-04-01T07:17:28;2.17;;;0.70;;
27199;SDS011;14714;48.106;11.546;2023-04-01T07:20:01;1.13;;;0.60;;
27199;SDS011;14714;48.106;11.546;2023-04-01T07:22:49;2.00;;;0.98;;
27199;SDS011;14714;48.106;11.546;2023-04-01T07:25:18;1.27;;;0.57;;
27199;SDS011;14714;48.106;11.546;2023-04-01T07:28:02;1.83;;;0.55;;
27199;SDS011;14714;48.106;11.546;2023-04-01T07:39:30;2.72;;;0.60;;
27199;SDS011;14714;48.106;11.546;2023-04-01T07:42:28;2.10;;;0.70;;
27199;SDS011;14714;48.106;11.546;2023-04-01T07:50:46;1.25;;;0.68;;
27199;SDS011;14714;48.106;11.546;2023-04-01T08:04:20;1.15;;;0.60;;
27199;SDS011;14714;48.106;11.546;2023-04-01T08:09:50;0.73;;;0.50;;
27199;SDS011;14714;48.106;11.546;2023-04-01T08:18:26;0.98;;;0.50;;
27199;SDS011;14714;48.106;11.546;2023-04-01T08:23:38;1.15;;;0.60;;
27199;SDS011;14714;48.106;11.546;2023-04-01T08:26:27;1.50;;;0.50;;
27199;SDS011;14714;48.106;11.546;2023-04-01T08:29:11;1.55;;;0.50;;
27199;SDS011;14714;48.106;11.546;2023-04-01T08:34:18;1.30;;;0.57;;
27199;SDS011;14714;48.106;11.546;2023-04-01T08:36:53;0.80;;;0.50;;
27199;SDS011;14714;48.106;11.546;2023-04-01T08:39:34;1.35;;;0.60;;
27199;SDS011;14714;48.106;11.546;2023-04-01T09:18:44;0.30;;;0.30;;
27199;SDS011;14714;48.106;11.546;2023-04-01T09:24:26;0.50;;;0.50;;
27199;SDS011;14714;48.106;11.546;2023-04-01T09:35:47;0.38;;;0.38;;
27199;SDS011;14714;48.106;11.546;2023-04-01T09:38:23;0.45;;;0.35;;
27199;SDS011;14714;48.106;11.546;2023-04-01T09:43:58;0.40;;;0.40;;
27199;SDS011;14714;48.106;11.546;2023-04-01T10:03:20;1.15;;;0.60;;
27199;SDS011;14714;48.106;11.546;2023-04-01T10:20:46;0.95;;;0.35;;
27199;SDS011;14714;48.106;11.546;2023-04-01T10:27:01;0.45;;;0.30;;
27199;SDS011;14714;48.106;11.546;2023-04-01T10:43:11;2.65;;;0.40;;
27199;SDS011;14714;48.106;11.546;2023-04-01T10:55:18;0.30;;;0.30;;
27199;SDS011;14714;48.106;11.546;2023-04-01T11:07:15;1.10;;;0.40;;
27199;SDS011;14714;48.106;11.546;2023-04-01T11:15:26;0.20;;;0.20;;
27199;SDS011;14714;48.106;11.546;2023-04-01T11:37:58;0.57;;;0.20;;
27199;SDS011;14714;48.106;11.546;2023-04-01T11:40:51;0.20;;;0.20;;
27199;SDS011;14714;48.106;11.546;2023-04-01T11:43:55;0.38;;;0.20;;
27199;SDS011;14714;48.106;11.546;2023-04-01T11:46:39;0.30;;;0.30;;
27199;SDS011;14714;48.106;11.546;2023-04-01T11:54:55;0.30;;;0.30;;
27199;SDS011;14714;48.106;11.546;2023-04-01T12:03:02;0.25;;;0.25;;
27199;SDS011;14714;48.106;11.546;2023-04-01T12:14:13;0.50;;;0.50;;
27199;SDS011;14714;48.106;11.546;2023-04-01T12:19:51;0.30;;;0.30;;
27199;SDS011;14714;48.106;11.546;2023-04-01T12:33:23;0.50;;;0.50;;
27199;SDS011;14714;48.106;11.546;2023-04-01T12:41:39;0.40;;;0.20;;
27199;SDS011;14714;48.106;11.546;2023-04-01T12:47:10;0.68;;;0.43;;
27199;SDS011;14714;48.106;11.546;2023-04-01T12:55:38;0.40;;;0.40;;
27199;SDS011;14714;48.106;11.546;2023-04-01T13:08:59;0.68;;;0.63;;
27199;SDS011;14714;48.106;11.546;2023-04-01T13:14:57;0.57;;;0.40;;
27199;SDS011;14714;48.106;11.546;2023-04-01T13:17:53;0.75;;;0.50;;
27199;SDS011;14714;48.106;11.546;2023-04-01T13:23:34;0.98;;;0.55;;
27199;SDS011;14714;48.106;11.546;2023-04-01T13:26:34;0.60;;;0.57;;
27199;SDS011;14714;48.106;11.546;2023-04-01T13:35:10;0.77;;;0.50;;
27199;SDS011;14714;48.106;11.546;2023-04-01T13:46:05;0.70;;;0.60;;
27199;SDS011;14714;48.106;11.546;2023-04-01T13:48:52;0.68;;;0.68;;
27199;SDS011;14714;48.106;11.546;2023-04-01T14:08:20;1.48;;;0.40;;
27199;SDS011;14714;48.106;11.546;2023-04-01T14:11:24;1.33;;;0.40;;
27199;SDS011;14714;48.106;11.546;2023-04-01T14:22:52;0.57;;;0.57;;
27199;SDS011;14714;48.106;11.546;2023-04-01T14:28:54;0.60;;;0.55;;
27199;SDS011;14714;48.106;11.546;2023-04-01T14:45:46;0.40;;;0.40;;
27199;SDS011;14714;48.106;11.546;2023-04-01T14:48:24;1.17;;;0.65;;
27199;SDS011;14714;48.106;11.546;2023-04-01T14:51:02;2.30;;;1.20;;
27199;SDS011;14714;48.106;11.546;2023-04-01T14:54:00;1.05;;;0.60;;
27199;SDS011;14714;48.106;11.546;2023-04-01T14:56:36;1.67;;;0.60;;
27199;SDS011;14714;48.106;11.546;2023-04-01T14:59:08;0.50;;;0.50;;
27199;SDS011;14714;48.106;11.546;2023-04-01T15:04:26;0.40;;;0.40;;
27199;SDS011;14714;48.106;11.546;2023-04-01T15:07:11;0.77;;;0.60;;
27199;SDS011;14714;48.106;11.546;2023-04-01T15:13:14;0.43;;;0.43;;
27199;SDS011;14714;48.106;11.546;2023-04-01T15:18:19;0.70;;;0.40;;
27199;SDS011;14714;48.106;11.546;2023-04-01T15:21:06;1.65;;;0.70;;
27199;SDS011;14714;48.106;11.546;2023-04-01T15:23:51;0.82;;;0.52;;
27199;SDS011;14714;48.106;11.546;2023-04-01T15:26:33;1.23;;;0.57;;
27199;SDS011;14714;48.106;11.546;2023-04-01T15:31:58;1.08;;;0.68;;
27199;SDS011;14714;48.106;11.546;2023-04-01T15:42:55;0.85;;;0.50;;
27199;SDS011;14714;48.106;11.546;2023-04-01T15:51:36;0.50;;;0.50;;
27199;SDS011;14714;48.106;11.546;2023-04-01T15:57:32;0.65;;;0.50;;
27199;SDS011;14714;48.106;11.546;2023-04-01T16:00:22;1.00;;;0.52;;
27199;SDS011;14714;48.106;11.546;2023-04-01T16:03:20;0.43;;;0.40;;
27199;SDS011;14714;48.106;11.546;2023-04-01T16:11:19;0.30;;;0.30;;
27199;SDS011;14714;48.106;11.546;2023-04-01T16:14:14;0.68;;;0.50;;
27199;SDS011;14714;48.106;11.546;2023-04-01T16:31:16;1.42;;;0.50;;
27199;SDS011;14714;48.106;11.546;2023-04-01T16:34:36;0.85;;;0.70;;
27199;SDS011;14714;48.106;11.546;2023-04-01T16:37:06;2.92;;;0.50;;
27199;SDS011;14714;48.106;11.546;2023-04-01T16:40:26;0.47;;;0.47;;
27199;SDS011;14714;48.106;11.546;2023-04-01T16:42:50;0.77;;;0.47;;
27199;SDS011;14714;48.106;11.546;2023-04-01T16:45:40;1.10;;;0.77;;
27199;SDS011;14714;48.106;11.546;2023-04-01T16:48:22;0.88;;;0.85;;
27199;SDS011;14714;48.106;11.546;2023-04-01T16:50:59;1.25;;;0.60;;
27199;SDS011;14714;48.106;11.546;2023-04-01T16:53:43;1.08;;;0.77;;
27199;SDS011;14714;48.106;11.546;2023-04-01T16:56:23;1.45;;;0.70;;
27199;SDS011;14714;48.106;11.546;2023-04-01T17:01:23;0.70;;;0.70;;
27199;SDS011;14714;48.106;11.546;2023-04-01T17:04:00;1.70;;;0.60;;
27199;SDS011;14714;48.106;11.546;2023-04-01T17:06:39;0.50;;;0.50;;
27199;SDS011;14714;48.106;11.546;2023-04-01T17:12:17;1.25;;;0.73;;
27199;SDS011;14714;48.106;11.546;2023-04-01T17:20:50;1.17;;;0.50;;
27199;SDS011;14714;48.106;11.546;2023-04-01T17:40:12;0.70;;;0.63;;
27199;SDS011;14714;48.106;11.546;2023-04-01T17:42:58;0.70;;;0.60;;
27199;SDS011;14714;48.106;11.546;2023-04-01T17:45:49;1.08;;;0.68;;
27199;SDS011;14714;48.106;11.546;2023-04-01T17:51:17;1.50;;;0.73;;
27199;SDS011;14714;48.106;11.546;2023-04-01T17:56:47;0.95;;;0.60;;
27199;SDS011;14714;48.106;11.546;2023-04-01T18:00:01;0.73;;;0.70;;
27199;SDS011;14714;48.106;11.546;2023-04-01T18:05:35;0.80;;;0.63;;
27199;SDS011;14714;48.106;11.546;2023-04-01T18:19:02;1.63;;;0.90;;
27199;SDS011;14714;48.106;11.546;2023-04-01T18:21:43;1.27;;;0.73;;
27199;SDS011;14714;48.106;11.546;2023-04-01T18:24:33;2.70;;;0.80;;
27199;SDS011;14714;48.106;11.546;2023-04-01T18:35:29;0.73;;;0.60;;
27199;SDS011;14714;48.106;11.546;2023-04-01T18:49:46;0.95;;;0.95;;
27199;SDS011;14714;48.106;11.546;2023-04-01T18:57:27;1.13;;;0.88;;
27199;SDS011;14714;48.106;11.546;2023-04-01T19:00:32;1.55;;;1.13;;
27199;SDS011;14714;48.106;11.546;2023-04-01T19:06:08;2.30;;;1.08;;
27199;SDS011;14714;48.106;11.546;2023-04-01T19:08:52;1.50;;;1.10;;
27199;SDS011;14714;48.106;11.546;2023-04-01T19:11:35;2.47;;;1.52;;
27199;SDS011;14714;48.106;11.546;2023-04-01T19:14:26;1.17;;;1.05;;
27199;SDS011;14714;48.106;11.546;2023-04-01T19:27:48;1.60;;;1.00;;
27199;SDS011;14714;48.106;11.546;2023-04-01T19:47:08;1.75;;;0.75;;
27199;SDS011;14714;48.106;11.546;2023-04-01T19:52:49;1.25;;;0.90;;
27199;SDS011;14714;48.106;11.546;2023-04-01T19:58:15;1.08;;;0.70;;
27199;SDS011;14714;48.106;11.546;2023-04-01T20:00:58;0.70;;;0.70;;
27199;SDS011;14714;48.106;11.546;2023-04-01T20:06:02;0.90;;;0.70;;
27199;SDS011;14714;48.106;11.546;2023-04-01T20:08:42;1.35;;;0.70;;
27199;SDS011;14714;48.106;11.546;2023-04-01T20:11:14;2.00;;;0.90;;
27199;SDS011;14714;48.106;11.546;2023-04-01T20:14:14;0.80;;;0.70;;
27199;SDS011;14714;48.106;11.546;2023-04-01T20:22:37;1.67;;;0.80;;
27199;SDS011;14714;48.106;11.546;2023-04-01T20:27:58;1.67;;;0.98;;
27199;SDS011;14714;48.106;11.546;2023-04-01T20:41:30;1.83;;;0.80;;
27199;SDS011;14714;48.106;11.546;2023-04-01T20:44:09;0.75;;;0.60;;
27199;SDS011;14714;48.106;11.546;2023-04-01T20:57:16;3.40;;;0.90;;
27199;SDS011;14714;48.106;11.546;2023-04-01T21:00:15;1.15;;;1.00;;
27199;SDS011;14714;48.106;11.546;2023-04-01T21:25:20;2.15;;;1.02;;
27199;SDS011;14714;48.106;11.546;2023-04-01T21:28:04;0.93;;;0.52;;
27199;SDS011;14714;48.106;11.546;2023-04-01T21:31:08;0.85;;;0.70;;
27199;SDS011;14714;48.106;11.546;2023-04-01T21:36:24;2.60;;;1.02;;
27199;SDS011;14714;48.106;11.546;2023-04-01T21:53:01;1.05;;;0.77;;
27199;SDS011;14714;48.106;11.546;2023-04-01T22:02:21;0.68;;;0.60;;
27199;SDS011;14714;48.106;11.546;2023-04-01T22:07:58;0.88;;;0.80;;
27199;SDS011;14714;48.106;11.546;2023-04-01T22:16:12;1.17;;;0.70;;
27199;SDS011;14714;48.106;11.546;2023-04-01T22:24:27;0.95;;;0.65;;
27199;SDS011;14714;48.106;11.546;2023-04-01T22:27:11;0.82;;;0.60;;
27199;SDS011;14714;48.106;11.546;2023-04-01T22:32:41;0.70;;;0.55;;
27199;SDS011;14714;48.106;11.546;2023-04-01T22:37:57;0.77;;;0.70;;
27199;SDS011;14714;48.106;11.546;2023-04-01T22:43:33;1.77;;;0.70;;
27199;SDS011;14714;48.106;11.546;2023-04-01T22:48:41;0.60;;;0.52;;
27199;SDS011;14714;48.106;11.546;2023-04-01T22:51:15;1.08;;;0.73;;
27199;SDS011;14714;48.106;11.546;2023-04-01T22:56:37;0.73;;;0.65;;
27199;SDS011;14714;48.106;11.546;2023-04-01T22:59:13;1.38;;;0.80;;
27199;SDS011;14714;48.106;11.546;2023-04-01T23:02:01;0.90;;;0.70;;
27199;SDS011;14714;48.106;11.546;2023-04-01T23:04:37;1.83;;;0.80;;
27199;SDS011;14714;48.106;11.546;2023-04-01T23:09:54;1.23;;;0.65;;
27199;SDS011;14714;48.106;11.546;2023-04-01T23:12:24;0.57;;;0.55;;
27199;SDS011;14714;48.106;11.546;2023-04-01T23:14:54;0.98;;;0.50;;
27199;SDS011;14714;48.106;11.546;2023-04-01T23:26:13;1.08;;;0.85;;
27199;SDS011;14714;48.106;11.546;2023-04-01T23:28:49;1.67;;;0.90;;
27199;SDS011;14714;48.106;11.546;2023-04-01T23:31:29;1.35;;;0.80;;
27199;SDS011;14714;48.106;11.546;2023-04-01T23:34:00;0.70;;;0.70;;
27199;SDS011;14714;48.106;11.546;2023-04-01T23:36:37;0.70;;;0.70;;
27199;SDS011;14714;48.106;11.546;2023-04-01T23:41:54;1.90;;;0.90;;
27199;SDS011;14714;48.106;11.546;2023-04-01T23:44:25;0.80;;;0.80;;
27199;SDS011;14714;48.106;11.546;2023-04-01T23:46:54;0.77;;;0.70;;
27199;SDS011;14714;48.106;11.546;2023-04-01T23:49:23;1.65;;;0.80;;
27199;SDS011;14714;48.106;11.546;2023-04-01T23:51:59;1.02;;;0.60;;
27199;SDS011;14714;48.106;11.546;2023-04-01T23:54:42;1.58;;;0.88;;
27199;SDS011;14714;48.106;11.546;2023-04-01T23:57:14;1.58;;;0.70;;
27199;SDS011;14714;48.106;11.546;2023-04-01T23:59:45;1.42;;;1.10;;
